sensor_id;sensor_type;location;lat;lon;timestamp;temperature;humidity
50804;DHT22;37205;51.434;6.756;2023-11-21T00:00:13;7.80;99.90
50804;DHT22;37205;51.434;6.756;2023-11-21T00:02:39;7.80;99.90
50804;DHT22;37205;51.434;6.756;2023-11-21T00:05:07;7.90;99.90
50804;DHT22;37205;51.434;6.756;2023-11-21T00:07:33;7.90;99.90
50804;DHT22;37205;51.434;6.756;2023-11-21T00:09:59;7.90;99.90
50804;DHT22;37205;51.434;6.756;2023-11-21T00:12:24;7.90;99.90
50804;DHT22;37205;51.434;6.756;2023-11-21T00:14:50;8.20;99.90
50804;DHT22;37205;51.434;6.756;2023-11-21T00:17:16;8.30;99.90
50804;DHT22;37205;51.434;6.756;2023-11-21T00:19:41;8.30;99.90
50804;DHT22;37205;51.434;6.756;2023-11-21T00:22:08;8.30;99.90
50804;DHT22;37205;51.434;6.756;2023-11-21T00:24:34;8.20;99.90
50804;DHT22;37205;51.434;6.756;2023-11-21T00:27:00;8.20;99.90
50804;DHT22;37205;51.434;6.756;2023-11-21T00:29:25;8.20;99.90
50804;DHT22;37205;51.434;6.756;2023-11-21T00:31:52;8.20;99.90
50804;DHT22;37205;51.434;6.756;2023-11-21T00:34:18;8.30;99.90
50804;DHT22;37205;51.434;6.756;2023-11-21T00:36:43;8.30;99.90
50804;DHT22;37205;51.434;6.756;2023-11-21T00:39:09;8.20;99.90
50804;DHT22;37205;51.434;6.756;2023-11-21T00:41:34;8.20;99.90
50804;DHT22;37205;51.434;6.756;2023-11-21T00:44:01;8.10;99.90
50804;DHT22;37205;51.434;6.756;2023-11-21T00:46:27;8.00;99.90
50804;DHT22;37205;51.434;6.756;2023-11-21T00:48:54;7.90;99.90
50804;DHT22;37205;51.434;6.756;2023-11-21T00:51:20;7.80;99.90
50804;DHT22;37205;51.434;6.756;2023-11-21T00:53:47;7.80;99.90
50804;DHT22;37205;51.434;6.756;2023-11-21T00:56:13;7.80;99.90
50804;DHT22;37205;51.434;6.756;2023-11-21T00:58:39;7.80;99.90
50804;DHT22;37205;51.434;6.756;2023-11-21T01:01:04;7.90;99.90
50804;DHT22;37205;51.434;6.756;2023-11-21T01:03:30;7.90;99.90
50804;DHT22;37205;51.434;6.756;2023-11-21T01:05:55;7.90;99.90
50804;DHT22;37205;51.434;6.756;2023-11-21T01:08:21;7.90;99.90
50804;DHT22;37205;51.434;6.756;2023-11-21T01:10:47;7.80;99.90
50804;DHT22;37205;51.434;6.756;2023-11-21T01:13:13;7.90;99.90
50804;DHT22;37205;51.434;6.756;2023-11-21T01:15:40;7.90;99.90
50804;DHT22;37205;51.434;6.756;2023-11-21T01:18:07;7.90;99.90
50804;DHT22;37205;51.434;6.756;2023-11-21T01:20:34;7.90;99.90
50804;DHT22;37205;51.434;6.756;2023-11-21T01:22:59;7.90;99.90
50804;DHT22;37205;51.434;6.756;2023-11-21T01:25:25;8.00;99.90
50804;DHT22;37205;51.434;6.756;2023-11-21T01:27:51;7.90;99.90
50804;DHT22;37205;51.434;6.756;2023-11-21T01:30:17;7.90;99.90
50804;DHT22;37205;51.434;6.756;2023-11-21T01:32:42;8.00;99.90
50804;DHT22;37205;51.434;6.756;2023-11-21T01:35:09;8.00;99.90
50804;DHT22;37205;51.434;6.756;2023-11-21T01:37:35;8.00;99.90
50804;DHT22;37205;51.434;6.756;2023-11-21T01:40:01;8.00;99.90
50804;DHT22;37205;51.434;6.756;2023-11-21T01:42:27;8.10;99.90
50804;DHT22;37205;51.434;6.756;2023-11-21T01:44:54;8.10;99.90
50804;DHT22;37205;51.434;6.756;2023-11-21T01:47:20;8.20;99.90
50804;DHT22;37205;51.434;6.756;2023-11-21T01:49:46;8.20;99.90
50804;DHT22;37205;51.434;6.756;2023-11-21T01:52:13;8.20;99.90
50804;DHT22;37205;51.434;6.756;2023-11-21T01:54:41;8.40;99.90
50804;DHT22;37205;51.434;6.756;2023-11-21T01:57:06;8.30;99.90
50804;DHT22;37205;51.434;6.756;2023-11-21T01:59:36;8.30;99.90
50804;DHT22;37205;51.434;6.756;2023-11-21T02:02:06;8.30;99.90
50804;DHT22;37205;51.434;6.756;2023-11-21T02:04:35;8.40;99.90
50804;DHT22;37205;51.434;6.756;2023-11-21T02:07:02;8.50;99.90
50804;DHT22;37205;51.434;6.756;2023-11-21T02:09:30;8.50;99.90
50804;DHT22;37205;51.434;6.756;2023-11-21T02:11:57;8.40;99.90
50804;DHT22;37205;51.434;6.756;2023-11-21T02:14:27;8.30;99.90
50804;DHT22;37205;51.434;6.756;2023-11-21T02:16:54;8.30;99.90
50804;DHT22;37205;51.434;6.756;2023-11-21T02:19:20;8.30;99.90
50804;DHT22;37205;51.434;6.756;2023-11-21T02:21:50;8.30;99.90
50804;DHT22;37205;51.434;6.756;2023-11-21T02:24:21;8.30;99.90
50804;DHT22;37205;51.434;6.756;2023-11-21T02:26:50;8.30;99.90
50804;DHT22;37205;51.434;6.756;2023-11-21T02:29:21;8.30;99.90
50804;DHT22;37205;51.434;6.756;2023-11-21T02:31:51;8.30;99.90
50804;DHT22;37205;51.434;6.756;2023-11-21T02:34:17;8.40;99.90
50804;DHT22;37205;51.434;6.756;2023-11-21T02:36:46;8.40;99.90
50804;DHT22;37205;51.434;6.756;2023-11-21T02:39:15;8.40;99.90
50804;DHT22;37205;51.434;6.756;2023-11-21T02:41:42;8.50;99.90
50804;DHT22;37205;51.434;6.756;2023-11-21T02:44:08;8.50;99.90
50804;DHT22;37205;51.434;6.756;2023-11-21T02:46:34;8.50;99.90
50804;DHT22;37205;51.434;6.756;2023-11-21T02:49:03;8.50;99.90
50804;DHT22;37205;51.434;6.756;2023-11-21T02:51:30;8.60;99.90
50804;DHT22;37205;51.434;6.756;2023-11-21T02:53:56;8.50;99.90
50804;DHT22;37205;51.434;6.756;2023-11-21T02:56:26;8.50;99.90
50804;DHT22;37205;51.434;6.756;2023-11-21T02:58:52;8.50;99.90
50804;DHT22;37205;51.434;6.756;2023-11-21T03:01:18;8.40;99.90
50804;DHT22;37205;51.434;6.756;2023-11-21T03:03:43;8.40;99.90
50804;DHT22;37205;51.434;6.756;2023-11-21T03:06:09;8.40;99.90
50804;DHT22;37205;51.434;6.756;2023-11-21T03:08:35;8.40;99.90
50804;DHT22;37205;51.434;6.756;2023-11-21T03:11:01;8.40;99.90
50804;DHT22;37205;51.434;6.756;2023-11-21T03:13:28;8.40;99.90
50804;DHT22;37205;51.434;6.756;2023-11-21T03:15:54;8.30;99.90
50804;DHT22;37205;51.434;6.756;2023-11-21T03:18:20;8.40;99.90
50804;DHT22;37205;51.434;6.756;2023-11-21T03:20:47;8.40;99.90
50804;DHT22;37205;51.434;6.756;2023-11-21T03:23:13;8.40;99.90
50804;DHT22;37205;51.434;6.756;2023-11-21T03:25:38;8.40;99.90
50804;DHT22;37205;51.434;6.756;2023-11-21T03:28:04;8.40;99.90
50804;DHT22;37205;51.434;6.756;2023-11-21T03:30:29;8.30;99.90
50804;DHT22;37205;51.434;6.756;2023-11-21T03:32:55;8.30;99.90
50804;DHT22;37205;51.434;6.756;2023-11-21T03:35:21;8.40;99.90
50804;DHT22;37205;51.434;6.756;2023-11-21T03:37:47;8.40;99.90
50804;DHT22;37205;51.434;6.756;2023-11-21T03:40:12;8.50;99.90
50804;DHT22;37205;51.434;6.756;2023-11-21T03:42:38;8.40;99.90
50804;DHT22;37205;51.434;6.756;2023-11-21T03:45:05;8.50;99.90
50804;DHT22;37205;51.434;6.756;2023-11-21T03:47:31;8.40;99.90
50804;DHT22;37205;51.434;6.756;2023-11-21T03:49:57;8.40;99.90
50804;DHT22;37205;51.434;6.756;2023-11-21T03:52:22;8.40;99.90
50804;DHT22;37205;51.434;6.756;2023-11-21T03:54:48;8.50;99.90
50804;DHT22;37205;51.434;6.756;2023-11-21T03:57:13;8.50;99.90
50804;DHT22;37205;51.434;6.756;2023-11-21T03:59:45;8.50;99.90
50804;DHT22;37205;51.434;6.756;2023-11-21T04:02:10;8.40;99.90
50804;DHT22;37205;51.434;6.756;2023-11-21T04:04:36;8.40;99.90
50804;DHT22;37205;51.434;6.756;2023-11-21T04:07:02;8.40;99.90
50804;DHT22;37205;51.434;6.756;2023-11-21T04:09:28;8.50;99.90
50804;DHT22;37205;51.434;6.756;2023-11-21T04:11:54;8.40;99.90
50804;DHT22;37205;51.434;6.756;2023-11-21T04:14:22;8.40;99.90
50804;DHT22;37205;51.434;6.756;2023-11-21T04:16:48;8.40;99.90
50804;DHT22;37205;51.434;6.756;2023-11-21T04:19:14;8.40;99.90
50804;DHT22;37205;51.434;6.756;2023-11-21T04:21:42;8.40;99.90
50804;DHT22;37205;51.434;6.756;2023-11-21T04:24:11;8.40;99.90
50804;DHT22;37205;51.434;6.756;2023-11-21T04:26:36;8.40;99.90
50804;DHT22;37205;51.434;6.756;2023-11-21T04:29:02;8.40;99.90
50804;DHT22;37205;51.434;6.756;2023-11-21T04:31:28;8.50;99.90
50804;DHT22;37205;51.434;6.756;2023-11-21T04:33:53;8.50;99.90
50804;DHT22;37205;51.434;6.756;2023-11-21T04:36:19;8.40;99.90
50804;DHT22;37205;51.434;6.756;2023-11-21T04:38:45;8.40;99.90
50804;DHT22;37205;51.434;6.756;2023-11-21T04:41:11;8.30;99.90
50804;DHT22;37205;51.434;6.756;2023-11-21T04:43:37;8.40;99.90
50804;DHT22;37205;51.434;6.756;2023-11-21T04:46:03;8.30;99.90
50804;DHT22;37205;51.434;6.756;2023-11-21T04:48:28;8.30;99.90
50804;DHT22;37205;51.434;6.756;2023-11-21T04:50:54;8.40;99.90
50804;DHT22;37205;51.434;6.756;2023-11-21T04:53:20;8.50;99.90
50804;DHT22;37205;51.434;6.756;2023-11-21T04:55:45;8.50;99.90
50804;DHT22;37205;51.434;6.756;2023-11-21T04:58:12;8.60;99.90
50804;DHT22;37205;51.434;6.756;2023-11-21T05:00:37;8.60;99.90
50804;DHT22;37205;51.434;6.756;2023-11-21T05:03:03;8.60;99.90
50804;DHT22;37205;51.434;6.756;2023-11-21T05:05:30;8.60;99.90
50804;DHT22;37205;51.434;6.756;2023-11-21T05:07:56;8.60;99.90
50804;DHT22;37205;51.434;6.756;2023-11-21T05:10:21;8.60;99.90
50804;DHT22;37205;51.434;6.756;2023-11-21T05:12:48;8.50;99.90
50804;DHT22;37205;51.434;6.756;2023-11-21T05:15:16;8.60;99.90
50804;DHT22;37205;51.434;6.756;2023-11-21T05:17:43;8.60;99.90
50804;DHT22;37205;51.434;6.756;2023-11-21T05:20:13;8.70;99.90
50804;DHT22;37205;51.434;6.756;2023-11-21T05:22:40;8.60;99.90
50804;DHT22;37205;51.434;6.756;2023-11-21T05:25:07;8.60;99.90
50804;DHT22;37205;51.434;6.756;2023-11-21T05:27:33;8.50;99.90
50804;DHT22;37205;51.434;6.756;2023-11-21T05:30:01;8.40;99.90
50804;DHT22;37205;51.434;6.756;2023-11-21T05:32:28;8.50;99.90
50804;DHT22;37205;51.434;6.756;2023-11-21T05:34:53;8.40;99.90
50804;DHT22;37205;51.434;6.756;2023-11-21T05:37:19;8.50;99.90
50804;DHT22;37205;51.434;6.756;2023-11-21T05:39:44;8.50;99.90
50804;DHT22;37205;51.434;6.756;2023-11-21T05:42:10;8.40;99.90
50804;DHT22;37205;51.434;6.756;2023-11-21T05:44:36;8.40;99.90
50804;DHT22;37205;51.434;6.756;2023-11-21T05:47:02;8.40;99.90
50804;DHT22;37205;51.434;6.756;2023-11-21T05:49:29;8.40;99.90
50804;DHT22;37205;51.434;6.756;2023-11-21T05:51:55;8.30;99.90
50804;DHT22;37205;51.434;6.756;2023-11-21T05:54:21;8.30;99.90
50804;DHT22;37205;51.434;6.756;2023-11-21T05:56:47;8.30;99.90
50804;DHT22;37205;51.434;6.756;2023-11-21T05:59:12;8.40;99.90
50804;DHT22;37205;51.434;6.756;2023-11-21T06:01:38;8.20;99.90
50804;DHT22;37205;51.434;6.756;2023-11-21T06:04:04;8.20;99.90
50804;DHT22;37205;51.434;6.756;2023-11-21T06:06:30;8.30;99.90
50804;DHT22;37205;51.434;6.756;2023-11-21T06:08:56;8.30;99.90
50804;DHT22;37205;51.434;6.756;2023-11-21T06:11:22;8.20;99.90
50804;DHT22;37205;51.434;6.756;2023-11-21T06:13:48;8.20;99.90
50804;DHT22;37205;51.434;6.756;2023-11-21T06:16:15;8.20;99.90
50804;DHT22;37205;51.434;6.756;2023-11-21T06:18:42;8.30;99.90
50804;DHT22;37205;51.434;6.756;2023-11-21T06:21:11;8.20;99.90
50804;DHT22;37205;51.434;6.756;2023-11-21T06:23:36;8.30;99.90
50804;DHT22;37205;51.434;6.756;2023-11-21T06:26:02;8.30;99.90
50804;DHT22;37205;51.434;6.756;2023-11-21T06:28:29;8.20;99.90
50804;DHT22;37205;51.434;6.756;2023-11-21T06:30:56;8.20;99.90
50804;DHT22;37205;51.434;6.756;2023-11-21T06:33:22;8.30;99.90
50804;DHT22;37205;51.434;6.756;2023-11-21T06:35:48;8.20;99.90
50804;DHT22;37205;51.434;6.756;2023-11-21T06:38:13;8.30;99.90
50804;DHT22;37205;51.434;6.756;2023-11-21T06:40:39;8.20;99.90
50804;DHT22;37205;51.434;6.756;2023-11-21T06:43:06;8.20;99.90
50804;DHT22;37205;51.434;6.756;2023-11-21T06:45:33;8.20;99.90
50804;DHT22;37205;51.434;6.756;2023-11-21T06:47:59;8.20;99.90
50804;DHT22;37205;51.434;6.756;2023-11-21T06:50:25;8.10;99.90
50804;DHT22;37205;51.434;6.756;2023-11-21T06:52:51;8.20;99.90
50804;DHT22;37205;51.434;6.756;2023-11-21T06:55:16;8.20;99.90
50804;DHT22;37205;51.434;6.756;2023-11-21T06:57:42;8.20;99.90
50804;DHT22;37205;51.434;6.756;2023-11-21T07:00:08;8.30;99.90
50804;DHT22;37205;51.434;6.756;2023-11-21T07:02:34;8.40;99.90
50804;DHT22;37205;51.434;6.756;2023-11-21T07:05:00;8.30;99.90
50804;DHT22;37205;51.434;6.756;2023-11-21T07:07:27;8.30;99.90
50804;DHT22;37205;51.434;6.756;2023-11-21T07:09:53;8.30;99.90
50804;DHT22;37205;51.434;6.756;2023-11-21T07:12:19;8.30;99.90
50804;DHT22;37205;51.434;6.756;2023-11-21T07:14:44;8.30;99.90
50804;DHT22;37205;51.434;6.756;2023-11-21T07:17:13;8.40;99.90
50804;DHT22;37205;51.434;6.756;2023-11-21T07:19:39;8.40;99.90
50804;DHT22;37205;51.434;6.756;2023-11-21T07:22:04;8.60;99.90
50804;DHT22;37205;51.434;6.756;2023-11-21T07:24:31;8.60;99.90
50804;DHT22;37205;51.434;6.756;2023-11-21T07:26:57;8.70;99.90
50804;DHT22;37205;51.434;6.756;2023-11-21T07:29:24;8.80;99.90
50804;DHT22;37205;51.434;6.756;2023-11-21T07:31:54;8.80;99.90
50804;DHT22;37205;51.434;6.756;2023-11-21T07:34:21;8.80;99.90
50804;DHT22;37205;51.434;6.756;2023-11-21T07:36:47;8.80;99.90
50804;DHT22;37205;51.434;6.756;2023-11-21T07:39:12;8.90;99.90
50804;DHT22;37205;51.434;6.756;2023-11-21T07:41:41;8.90;99.90
50804;DHT22;37205;51.434;6.756;2023-11-21T07:44:10;8.80;99.90
50804;DHT22;37205;51.434;6.756;2023-11-21T07:46:36;8.80;99.90
50804;DHT22;37205;51.434;6.756;2023-11-21T07:49:01;8.70;99.90
50804;DHT22;37205;51.434;6.756;2023-11-21T07:51:27;8.80;99.90
50804;DHT22;37205;51.434;6.756;2023-11-21T07:53:52;8.90;99.90
50804;DHT22;37205;51.434;6.756;2023-11-21T07:56:18;8.90;99.90
50804;DHT22;37205;51.434;6.756;2023-11-21T07:58:43;8.90;99.90
50804;DHT22;37205;51.434;6.756;2023-11-21T08:01:10;8.80;99.90
50804;DHT22;37205;51.434;6.756;2023-11-21T08:03:35;8.80;99.90
50804;DHT22;37205;51.434;6.756;2023-11-21T08:06:01;8.80;99.90
50804;DHT22;37205;51.434;6.756;2023-11-21T08:08:28;8.80;99.90
50804;DHT22;37205;51.434;6.756;2023-11-21T08:10:54;8.70;99.90
50804;DHT22;37205;51.434;6.756;2023-11-21T08:13:26;8.70;99.90
50804;DHT22;37205;51.434;6.756;2023-11-21T08:15:55;8.80;99.90
50804;DHT22;37205;51.434;6.756;2023-11-21T08:18:29;8.90;99.90
50804;DHT22;37205;51.434;6.756;2023-11-21T08:20:57;8.80;99.90
50804;DHT22;37205;51.434;6.756;2023-11-21T08:23:23;8.80;99.90
50804;DHT22;37205;51.434;6.756;2023-11-21T08:25:54;8.90;99.90
50804;DHT22;37205;51.434;6.756;2023-11-21T08:28:21;8.90;99.90
50804;DHT22;37205;51.434;6.756;2023-11-21T08:30:51;8.90;99.90
50804;DHT22;37205;51.434;6.756;2023-11-21T08:33:18;9.00;99.90
50804;DHT22;37205;51.434;6.756;2023-11-21T08:35:44;9.00;99.90
50804;DHT22;37205;51.434;6.756;2023-11-21T08:38:11;9.00;99.90
50804;DHT22;37205;51.434;6.756;2023-11-21T08:40:37;9.00;99.90
50804;DHT22;37205;51.434;6.756;2023-11-21T08:43:03;9.10;99.90
50804;DHT22;37205;51.434;6.756;2023-11-21T08:45:30;9.10;99.90
50804;DHT22;37205;51.434;6.756;2023-11-21T08:47:55;9.30;99.90
50804;DHT22;37205;51.434;6.756;2023-11-21T08:50:21;9.20;99.90
50804;DHT22;37205;51.434;6.756;2023-11-21T08:52:47;9.30;99.90
50804;DHT22;37205;51.434;6.756;2023-11-21T08:55:13;9.40;99.90
50804;DHT22;37205;51.434;6.756;2023-11-21T08:57:39;9.40;99.90
50804;DHT22;37205;51.434;6.756;2023-11-21T09:00:06;9.30;99.90
50804;DHT22;37205;51.434;6.756;2023-11-21T09:02:43;9.30;99.90
50804;DHT22;37205;51.434;6.756;2023-11-21T09:05:09;9.30;99.90
50804;DHT22;37205;51.434;6.756;2023-11-21T09:07:39;9.30;99.90
50804;DHT22;37205;51.434;6.756;2023-11-21T09:10:06;9.20;99.90
50804;DHT22;37205;51.434;6.756;2023-11-21T09:12:33;9.30;99.90
50804;DHT22;37205;51.434;6.756;2023-11-21T09:14:58;9.50;99.90
50804;DHT22;37205;51.434;6.756;2023-11-21T09:17:24;9.40;99.90
50804;DHT22;37205;51.434;6.756;2023-11-21T09:19:50;9.50;99.90
50804;DHT22;37205;51.434;6.756;2023-11-21T09:22:17;9.70;99.90
50804;DHT22;37205;51.434;6.756;2023-11-21T09:24:43;9.60;99.90
50804;DHT22;37205;51.434;6.756;2023-11-21T09:27:08;9.60;99.90
50804;DHT22;37205;51.434;6.756;2023-11-21T09:29:35;9.70;99.90
50804;DHT22;37205;51.434;6.756;2023-11-21T09:32:01;9.70;99.90
50804;DHT22;37205;51.434;6.756;2023-11-21T09:34:26;9.80;99.90
50804;DHT22;37205;51.434;6.756;2023-11-21T09:36:52;9.80;99.90
50804;DHT22;37205;51.434;6.756;2023-11-21T09:39:19;9.90;99.90
50804;DHT22;37205;51.434;6.756;2023-11-21T09:41:52;9.80;99.90
50804;DHT22;37205;51.434;6.756;2023-11-21T09:44:29;9.90;99.90
50804;DHT22;37205;51.434;6.756;2023-11-21T09:46:59;9.70;99.90
50804;DHT22;37205;51.434;6.756;2023-11-21T09:49:26;9.80;99.90
50804;DHT22;37205;51.434;6.756;2023-11-21T09:51:55;9.80;99.90
50804;DHT22;37205;51.434;6.756;2023-11-21T09:54:21;9.70;99.90
50804;DHT22;37205;51.434;6.756;2023-11-21T09:56:47;9.60;99.90
50804;DHT22;37205;51.434;6.756;2023-11-21T09:59:15;9.60;99.90
50804;DHT22;37205;51.434;6.756;2023-11-21T10:01:42;9.60;99.90
50804;DHT22;37205;51.434;6.756;2023-11-21T10:04:08;9.60;99.90
50804;DHT22;37205;51.434;6.756;2023-11-21T10:06:40;9.70;99.90
50804;DHT22;37205;51.434;6.756;2023-11-21T10:09:09;9.90;99.90
50804;DHT22;37205;51.434;6.756;2023-11-21T10:11:40;10.00;99.90
50804;DHT22;37205;51.434;6.756;2023-11-21T10:14:08;10.10;99.90
50804;DHT22;37205;51.434;6.756;2023-11-21T10:16:36;10.30;99.90
50804;DHT22;37205;51.434;6.756;2023-11-21T10:19:04;10.40;99.90
50804;DHT22;37205;51.434;6.756;2023-11-21T10:21:32;10.30;99.90
50804;DHT22;37205;51.434;6.756;2023-11-21T10:23:58;10.30;99.90
50804;DHT22;37205;51.434;6.756;2023-11-21T10:26:25;10.20;99.90
50804;DHT22;37205;51.434;6.756;2023-11-21T10:28:58;10.20;99.90
50804;DHT22;37205;51.434;6.756;2023-11-21T10:31:28;10.30;99.90
50804;DHT22;37205;51.434;6.756;2023-11-21T10:33:54;10.40;99.90
50804;DHT22;37205;51.434;6.756;2023-11-21T10:36:28;10.20;99.90
50804;DHT22;37205;51.434;6.756;2023-11-21T10:38:54;10.20;99.90
50804;DHT22;37205;51.434;6.756;2023-11-21T10:41:20;10.50;99.90
50804;DHT22;37205;51.434;6.756;2023-11-21T10:43:46;10.60;99.90
50804;DHT22;37205;51.434;6.756;2023-11-21T10:46:13;10.60;99.90
50804;DHT22;37205;51.434;6.756;2023-11-21T10:48:44;10.70;99.90
50804;DHT22;37205;51.434;6.756;2023-11-21T10:51:09;10.80;99.90
50804;DHT22;37205;51.434;6.756;2023-11-21T10:53:41;10.80;99.90
50804;DHT22;37205;51.434;6.756;2023-11-21T10:56:08;10.90;99.90
50804;DHT22;37205;51.434;6.756;2023-11-21T10:58:37;10.90;99.90
50804;DHT22;37205;51.434;6.756;2023-11-21T11:01:05;11.10;99.90
50804;DHT22;37205;51.434;6.756;2023-11-21T11:03:32;11.10;99.90
50804;DHT22;37205;51.434;6.756;2023-11-21T11:05:59;11.30;99.90
50804;DHT22;37205;51.434;6.756;2023-11-21T11:08:26;11.20;99.90
50804;DHT22;37205;51.434;6.756;2023-11-21T11:10:53;11.10;99.90
50804;DHT22;37205;51.434;6.756;2023-11-21T11:13:18;11.10;99.90
50804;DHT22;37205;51.434;6.756;2023-11-21T11:15:47;11.10;99.90
50804;DHT22;37205;51.434;6.756;2023-11-21T11:18:14;11.10;99.90
50804;DHT22;37205;51.434;6.756;2023-11-21T11:20:42;11.00;99.90
50804;DHT22;37205;51.434;6.756;2023-11-21T11:26:05;10.80;99.90
50804;DHT22;37205;51.434;6.756;2023-11-21T11:28:43;10.40;99.90
50804;DHT22;37205;51.434;6.756;2023-11-21T11:33:56;10.30;99.90
50804;DHT22;37205;51.434;6.756;2023-11-21T11:36:41;10.30;99.90
50804;DHT22;37205;51.434;6.756;2023-11-21T11:39:35;10.30;99.90
50804;DHT22;37205;51.434;6.756;2023-11-21T11:42:02;10.50;99.90
50804;DHT22;37205;51.434;6.756;2023-11-21T11:47:21;10.60;99.90
50804;DHT22;37205;51.434;6.756;2023-11-21T11:50:00;10.60;99.90
50804;DHT22;37205;51.434;6.756;2023-11-21T11:52:48;10.60;99.90
50804;DHT22;37205;51.434;6.756;2023-11-21T11:55:17;10.60;99.90
50804;DHT22;37205;51.434;6.756;2023-11-21T11:57:45;10.60;99.90
50804;DHT22;37205;51.434;6.756;2023-11-21T12:02:48;10.60;99.90
50804;DHT22;37205;51.434;6.756;2023-11-21T12:05:16;10.50;99.90
50804;DHT22;37205;51.434;6.756;2023-11-21T12:10:15;10.60;99.90
50804;DHT22;37205;51.434;6.756;2023-11-21T12:12:44;10.60;99.90
50804;DHT22;37205;51.434;6.756;2023-11-21T12:15:11;10.60;99.90
50804;DHT22;37205;51.434;6.756;2023-11-21T12:17:38;10.60;99.90
50804;DHT22;37205;51.434;6.756;2023-11-21T12:20:04;10.60;99.90
50804;DHT22;37205;51.434;6.756;2023-11-21T12:22:31;10.40;99.90
50804;DHT22;37205;51.434;6.756;2023-11-21T12:24:57;10.40;99.90
50804;DHT22;37205;51.434;6.756;2023-11-21T12:27:23;10.30;99.90
50804;DHT22;37205;51.434;6.756;2023-11-21T12:29:49;10.40;99.90
50804;DHT22;37205;51.434;6.756;2023-11-21T12:32:14;10.50;99.90
50804;DHT22;37205;51.434;6.756;2023-11-21T12:34:41;10.50;99.90
50804;DHT22;37205;51.434;6.756;2023-11-21T12:37:07;10.70;99.90
50804;DHT22;37205;51.434;6.756;2023-11-21T12:39:33;11.00;99.90
50804;DHT22;37205;51.434;6.756;2023-11-21T12:41:58;11.00;99.90
50804;DHT22;37205;51.434;6.756;2023-11-21T12:44:25;11.00;99.90
50804;DHT22;37205;51.434;6.756;2023-11-21T12:46:51;10.70;99.90
50804;DHT22;37205;51.434;6.756;2023-11-21T12:49:18;10.70;99.90
50804;DHT22;37205;51.434;6.756;2023-11-21T12:51:45;10.50;99.90
50804;DHT22;37205;51.434;6.756;2023-11-21T12:54:12;10.40;99.90
50804;DHT22;37205;51.434;6.756;2023-11-21T12:56:39;10.40;99.90
50804;DHT22;37205;51.434;6.756;2023-11-21T12:59:04;10.20;99.90
50804;DHT22;37205;51.434;6.756;2023-11-21T13:01:30;10.20;99.90
50804;DHT22;37205;51.434;6.756;2023-11-21T13:03:59;10.20;99.90
50804;DHT22;37205;51.434;6.756;2023-11-21T13:06:27;10.30;99.90
50804;DHT22;37205;51.434;6.756;2023-11-21T13:08:55;10.30;99.90
50804;DHT22;37205;51.434;6.756;2023-11-21T13:11:22;10.30;99.90
50804;DHT22;37205;51.434;6.756;2023-11-21T13:13:51;10.40;99.90
50804;DHT22;37205;51.434;6.756;2023-11-21T13:16:18;10.30;99.90
50804;DHT22;37205;51.434;6.756;2023-11-21T13:18:46;10.30;99.90
50804;DHT22;37205;51.434;6.756;2023-11-21T13:21:14;10.20;99.90
50804;DHT22;37205;51.434;6.756;2023-11-21T13:23:41;10.10;99.90
50804;DHT22;37205;51.434;6.756;2023-11-21T13:26:08;10.20;99.90
50804;DHT22;37205;51.434;6.756;2023-11-21T13:28:35;10.10;99.90
50804;DHT22;37205;51.434;6.756;2023-11-21T13:31:01;10.20;99.90
50804;DHT22;37205;51.434;6.756;2023-11-21T13:33:37;10.20;99.90
50804;DHT22;37205;51.434;6.756;2023-11-21T13:36:05;10.20;99.90
50804;DHT22;37205;51.434;6.756;2023-11-21T13:38:33;10.20;99.90
50804;DHT22;37205;51.434;6.756;2023-11-21T13:41:00;10.20;99.90
50804;DHT22;37205;51.434;6.756;2023-11-21T13:43:26;10.20;99.90
50804;DHT22;37205;51.434;6.756;2023-11-21T13:45:54;10.20;99.90
50804;DHT22;37205;51.434;6.756;2023-11-21T13:48:29;10.30;99.90
50804;DHT22;37205;51.434;6.756;2023-11-21T13:51:04;10.30;99.90
50804;DHT22;37205;51.434;6.756;2023-11-21T13:53:48;10.20;99.90
50804;DHT22;37205;51.434;6.756;2023-11-21T13:56:16;10.30;99.90
50804;DHT22;37205;51.434;6.756;2023-11-21T13:58:53;10.30;99.90
50804;DHT22;37205;51.434;6.756;2023-11-21T14:01:20;10.30;99.90
50804;DHT22;37205;51.434;6.756;2023-11-21T14:03:59;10.30;99.90
50804;DHT22;37205;51.434;6.756;2023-11-21T14:06:37;10.30;99.90
50804;DHT22;37205;51.434;6.756;2023-11-21T14:09:16;10.30;99.90
50804;DHT22;37205;51.434;6.756;2023-11-21T14:11:54;10.20;99.90
50804;DHT22;37205;51.434;6.756;2023-11-21T14:14:24;10.20;99.90
50804;DHT22;37205;51.434;6.756;2023-11-21T14:16:56;10.10;99.90
50804;DHT22;37205;51.434;6.756;2023-11-21T14:19:22;10.10;99.90
50804;DHT22;37205;51.434;6.756;2023-11-21T14:21:52;10.10;99.90
50804;DHT22;37205;51.434;6.756;2023-11-21T14:24:18;10.10;99.90
50804;DHT22;37205;51.434;6.756;2023-11-21T14:26:47;10.10;99.90
50804;DHT22;37205;51.434;6.756;2023-11-21T14:29:16;10.10;99.90
50804;DHT22;37205;51.434;6.756;2023-11-21T14:31:45;10.10;99.90
50804;DHT22;37205;51.434;6.756;2023-11-21T14:34:11;10.10;99.90
50804;DHT22;37205;51.434;6.756;2023-11-21T14:36:38;10.10;99.90
50804;DHT22;37205;51.434;6.756;2023-11-21T14:39:05;10.10;99.90
50804;DHT22;37205;51.434;6.756;2023-11-21T14:41:35;10.20;99.90
50804;DHT22;37205;51.434;6.756;2023-11-21T14:44:01;10.10;99.90
50804;DHT22;37205;51.434;6.756;2023-11-21T14:46:29;10.00;99.90
50804;DHT22;37205;51.434;6.756;2023-11-21T14:48:55;10.00;99.90
50804;DHT22;37205;51.434;6.756;2023-11-21T14:51:28;10.10;99.90
50804;DHT22;37205;51.434;6.756;2023-11-21T14:53:57;10.10;99.90
50804;DHT22;37205;51.434;6.756;2023-11-21T14:56:32;10.20;99.90
50804;DHT22;37205;51.434;6.756;2023-11-21T14:59:03;10.20;99.90
50804;DHT22;37205;51.434;6.756;2023-11-21T15:01:38;10.20;99.90
50804;DHT22;37205;51.434;6.756;2023-11-21T15:04:21;10.10;99.90
50804;DHT22;37205;51.434;6.756;2023-11-21T15:07:03;10.10;99.90
50804;DHT22;37205;51.434;6.756;2023-11-21T15:09:29;10.10;99.90
50804;DHT22;37205;51.434;6.756;2023-11-21T15:11:59;10.10;99.90
50804;DHT22;37205;51.434;6.756;2023-11-21T15:14:43;10.00;99.90
50804;DHT22;37205;51.434;6.756;2023-11-21T15:17:19;10.00;99.90
50804;DHT22;37205;51.434;6.756;2023-11-21T15:19:51;10.00;99.90
50804;DHT22;37205;51.434;6.756;2023-11-21T15:22:17;10.00;99.90
50804;DHT22;37205;51.434;6.756;2023-11-21T15:24:43;9.80;99.90
50804;DHT22;37205;51.434;6.756;2023-11-21T15:27:12;9.80;99.90
50804;DHT22;37205;51.434;6.756;2023-11-21T15:29:39;9.80;99.90
50804;DHT22;37205;51.434;6.756;2023-11-21T15:32:06;9.80;99.90
50804;DHT22;37205;51.434;6.756;2023-11-21T15:34:32;9.80;99.90
50804;DHT22;37205;51.434;6.756;2023-11-21T15:36:58;9.80;99.90
50804;DHT22;37205;51.434;6.756;2023-11-21T15:39:23;9.70;99.90
50804;DHT22;37205;51.434;6.756;2023-11-21T15:41:54;9.60;99.90
50804;DHT22;37205;51.434;6.756;2023-11-21T15:44:19;9.60;99.90
50804;DHT22;37205;51.434;6.756;2023-11-21T15:46:45;9.60;99.90
50804;DHT22;37205;51.434;6.756;2023-11-21T15:49:11;9.60;99.90
50804;DHT22;37205;51.434;6.756;2023-11-21T15:51:44;9.60;99.90
50804;DHT22;37205;51.434;6.756;2023-11-21T15:54:21;9.60;99.90
50804;DHT22;37205;51.434;6.756;2023-11-21T15:56:49;9.70;99.90